sensor_id;sensor_type;location;lat;lon;timestamp;P1;durP1;ratioP1;P2;durP2;ratioP2
59207;SDS011;44977;53.132;6.408;2022-12-07T00:02:44;9.55;;;2.50;;
59207;SDS011;44977;53.132;6.408;2022-12-07T00:07:45;11.57;;;2.42;;
59207;SDS011;44977;53.132;6.408;2022-12-07T00:12:46;8.88;;;1.95;;
59207;SDS011;44977;53.132;6.408;2022-12-07T00:17:46;11.10;;;2.15;;
59207;SDS011;44977;53.132;6.408;2022-12-07T00:22:47;10.85;;;2.50;;
59207;SDS011;44977;53.132;6.408;2022-12-07T00:27:48;6.90;;;1.80;;
59207;SDS011;44977;53.132;6.408;2022-12-07T00:32:49;10.35;;;2.15;;
59207;SDS011;44977;53.132;6.408;2022-12-07T00:37:50;11.30;;;1.85;;
59207;SDS011;44977;53.132;6.408;2022-12-07T00:42:50;10.10;;;1.55;;
59207;SDS011;44977;53.132;6.408;2022-12-07T00:47:51;8.88;;;1.75;;
59207;SDS011;44977;53.132;6.408;2022-12-07T00:52:51;8.13;;;1.65;;
59207;SDS011;44977;53.132;6.408;2022-12-07T00:57:52;9.68;;;1.60;;
59207;SDS011;44977;53.132;6.408;2022-12-07T01:02:53;7.32;;;1.50;;
59207;SDS011;44977;53.132;6.408;2022-12-07T01:07:53;7.65;;;1.50;;
59207;SDS011;44977;53.132;6.408;2022-12-07T01:12:54;10.18;;;1.63;;
59207;SDS011;44977;53.132;6.408;2022-12-07T01:17:55;8.75;;;1.55;;
59207;SDS011;44977;53.132;6.408;2022-12-07T01:22:55;8.50;;;1.50;;
59207;SDS011;44977;53.132;6.408;2022-12-07T01:27:56;8.82;;;1.73;;
59207;SDS011;44977;53.132;6.408;2022-12-07T01:32:57;10.95;;;1.85;;
59207;SDS011;44977;53.132;6.408;2022-12-07T01:37:57;9.88;;;1.73;;
59207;SDS011;44977;53.132;6.408;2022-12-07T01:42:58;12.60;;;2.17;;
59207;SDS011;44977;53.132;6.408;2022-12-07T01:47:59;11.75;;;2.30;;
59207;SDS011;44977;53.132;6.408;2022-12-07T01:53:00;9.65;;;1.75;;
59207;SDS011;44977;53.132;6.408;2022-12-07T01:58:04;12.75;;;2.53;;
59207;SDS011;44977;53.132;6.408;2022-12-07T02:03:09;10.45;;;1.70;;
59207;SDS011;44977;53.132;6.408;2022-12-07T02:08:15;10.25;;;1.70;;
59207;SDS011;44977;53.132;6.408;2022-12-07T02:13:24;10.65;;;2.00;;
59207;SDS011;44977;53.132;6.408;2022-12-07T02:18:48;9.80;;;1.80;;
59207;SDS011;44977;53.132;6.408;2022-12-07T02:24:16;8.27;;;1.52;;
59207;SDS011;44977;53.132;6.408;2022-12-07T02:35:17;10.05;;;1.92;;
59207;SDS011;44977;53.132;6.408;2022-12-07T02:45:24;8.63;;;1.60;;
59207;SDS011;44977;53.132;6.408;2022-12-07T02:50:27;7.28;;;1.40;;
59207;SDS011;44977;53.132;6.408;2022-12-07T02:55:34;9.90;;;1.50;;
59207;SDS011;44977;53.132;6.408;2022-12-07T03:00:49;11.45;;;1.88;;
59207;SDS011;44977;53.132;6.408;2022-12-07T03:06:01;9.25;;;1.60;;
59207;SDS011;44977;53.132;6.408;2022-12-07T03:11:18;8.45;;;1.60;;
59207;SDS011;44977;53.132;6.408;2022-12-07T03:16:33;10.88;;;1.52;;
59207;SDS011;44977;53.132;6.408;2022-12-07T03:21:41;8.95;;;1.98;;
59207;SDS011;44977;53.132;6.408;2022-12-07T03:26:47;8.27;;;1.83;;
59207;SDS011;44977;53.132;6.408;2022-12-07T03:31:52;12.10;;;1.85;;
59207;SDS011;44977;53.132;6.408;2022-12-07T03:37:05;9.02;;;1.60;;
59207;SDS011;44977;53.132;6.408;2022-12-07T03:42:15;9.07;;;1.77;;
59207;SDS011;44977;53.132;6.408;2022-12-07T03:52:58;11.93;;;2.13;;
59207;SDS011;44977;53.132;6.408;2022-12-07T03:58:09;10.80;;;2.50;;
59207;SDS011;44977;53.132;6.408;2022-12-07T04:03:13;9.45;;;1.85;;
59207;SDS011;44977;53.132;6.408;2022-12-07T04:08:14;9.88;;;1.90;;
59207;SDS011;44977;53.132;6.408;2022-12-07T04:13:15;12.57;;;1.95;;
59207;SDS011;44977;53.132;6.408;2022-12-07T04:18:15;11.20;;;1.92;;
59207;SDS011;44977;53.132;6.408;2022-12-07T04:23:16;12.75;;;1.95;;
59207;SDS011;44977;53.132;6.408;2022-12-07T04:28:17;8.65;;;1.52;;
59207;SDS011;44977;53.132;6.408;2022-12-07T04:33:17;8.00;;;1.60;;
59207;SDS011;44977;53.132;6.408;2022-12-07T04:38:18;9.85;;;2.00;;
59207;SDS011;44977;53.132;6.408;2022-12-07T04:43:18;10.32;;;2.00;;
59207;SDS011;44977;53.132;6.408;2022-12-07T04:48:19;7.55;;;1.92;;
59207;SDS011;44977;53.132;6.408;2022-12-07T04:53:20;8.15;;;1.65;;
59207;SDS011;44977;53.132;6.408;2022-12-07T04:58:21;10.38;;;1.98;;
59207;SDS011;44977;53.132;6.408;2022-12-07T05:03:22;7.38;;;1.60;;
59207;SDS011;44977;53.132;6.408;2022-12-07T05:08:22;11.27;;;1.50;;
59207;SDS011;44977;53.132;6.408;2022-12-07T05:13:23;9.38;;;1.77;;
59207;SDS011;44977;53.132;6.408;2022-12-07T05:18:24;6.70;;;1.48;;
59207;SDS011;44977;53.132;6.408;2022-12-07T05:23:25;10.63;;;1.75;;
59207;SDS011;44977;53.132;6.408;2022-12-07T05:28:25;8.77;;;1.70;;
59207;SDS011;44977;53.132;6.408;2022-12-07T05:33:26;10.05;;;2.22;;
59207;SDS011;44977;53.132;6.408;2022-12-07T05:38:27;8.40;;;1.90;;
59207;SDS011;44977;53.132;6.408;2022-12-07T05:43:28;10.57;;;2.08;;
59207;SDS011;44977;53.132;6.408;2022-12-07T05:48:29;12.35;;;2.15;;
59207;SDS011;44977;53.132;6.408;2022-12-07T05:53:29;10.52;;;2.45;;
59207;SDS011;44977;53.132;6.408;2022-12-07T05:58:30;9.55;;;2.15;;
59207;SDS011;44977;53.132;6.408;2022-12-07T06:03:49;9.70;;;1.95;;
59207;SDS011;44977;53.132;6.408;2022-12-07T06:08:50;15.27;;;2.20;;
59207;SDS011;44977;53.132;6.408;2022-12-07T06:13:51;9.38;;;1.90;;
59207;SDS011;44977;53.132;6.408;2022-12-07T06:18:51;9.70;;;2.13;;
59207;SDS011;44977;53.132;6.408;2022-12-07T06:23:53;10.40;;;1.80;;
59207;SDS011;44977;53.132;6.408;2022-12-07T06:28:54;9.55;;;1.77;;
59207;SDS011;44977;53.132;6.408;2022-12-07T06:34:02;8.32;;;1.50;;
59207;SDS011;44977;53.132;6.408;2022-12-07T06:39:05;6.78;;;1.60;;
59207;SDS011;44977;53.132;6.408;2022-12-07T06:44:07;9.07;;;1.60;;
59207;SDS011;44977;53.132;6.408;2022-12-07T06:49:08;7.10;;;1.50;;
59207;SDS011;44977;53.132;6.408;2022-12-07T06:54:09;9.35;;;1.40;;
59207;SDS011;44977;53.132;6.408;2022-12-07T06:59:11;7.43;;;2.00;;
59207;SDS011;44977;53.132;6.408;2022-12-07T07:04:11;7.72;;;1.83;;
59207;SDS011;44977;53.132;6.408;2022-12-07T07:09:12;9.15;;;1.77;;
59207;SDS011;44977;53.132;6.408;2022-12-07T07:14:13;7.57;;;2.20;;
59207;SDS011;44977;53.132;6.408;2022-12-07T07:19:18;9.23;;;2.10;;
59207;SDS011;44977;53.132;6.408;2022-12-07T07:24:19;7.25;;;1.70;;
59207;SDS011;44977;53.132;6.408;2022-12-07T07:29:20;13.32;;;2.10;;
59207;SDS011;44977;53.132;6.408;2022-12-07T07:34:21;7.50;;;2.10;;
59207;SDS011;44977;53.132;6.408;2022-12-07T07:39:22;9.38;;;2.20;;
59207;SDS011;44977;53.132;6.408;2022-12-07T07:44:22;11.30;;;2.38;;
59207;SDS011;44977;53.132;6.408;2022-12-07T07:49:23;9.88;;;2.20;;
59207;SDS011;44977;53.132;6.408;2022-12-07T07:54:23;10.20;;;2.55;;
59207;SDS011;44977;53.132;6.408;2022-12-07T07:59:24;10.10;;;2.60;;
59207;SDS011;44977;53.132;6.408;2022-12-07T08:04:25;12.57;;;3.35;;
59207;SDS011;44977;53.132;6.408;2022-12-07T08:09:26;10.05;;;3.75;;
59207;SDS011;44977;53.132;6.408;2022-12-07T08:14:26;13.43;;;3.90;;
59207;SDS011;44977;53.132;6.408;2022-12-07T08:19:28;13.82;;;6.28;;
59207;SDS011;44977;53.132;6.408;2022-12-07T08:24:29;22.38;;;13.63;;
59207;SDS011;44977;53.132;6.408;2022-12-07T08:29:30;15.88;;;8.10;;
59207;SDS011;44977;53.132;6.408;2022-12-07T08:34:30;14.23;;;5.72;;
59207;SDS011;44977;53.132;6.408;2022-12-07T08:39:31;17.25;;;9.13;;
59207;SDS011;44977;53.132;6.408;2022-12-07T08:44:32;11.38;;;4.43;;
59207;SDS011;44977;53.132;6.408;2022-12-07T08:49:34;13.50;;;5.03;;
59207;SDS011;44977;53.132;6.408;2022-12-07T08:54:39;10.70;;;3.83;;
59207;SDS011;44977;53.132;6.408;2022-12-07T08:59:41;11.40;;;3.03;;
59207;SDS011;44977;53.132;6.408;2022-12-07T09:04:41;11.88;;;3.00;;
59207;SDS011;44977;53.132;6.408;2022-12-07T09:09:42;15.57;;;3.88;;
59207;SDS011;44977;53.132;6.408;2022-12-07T09:14:43;13.95;;;3.63;;
59207;SDS011;44977;53.132;6.408;2022-12-07T09:19:43;13.80;;;4.00;;
59207;SDS011;44977;53.132;6.408;2022-12-07T09:24:44;14.43;;;4.07;;
59207;SDS011;44977;53.132;6.408;2022-12-07T09:29:45;15.18;;;3.40;;
59207;SDS011;44977;53.132;6.408;2022-12-07T09:34:46;11.70;;;2.58;;
59207;SDS011;44977;53.132;6.408;2022-12-07T09:39:47;11.75;;;2.47;;
59207;SDS011;44977;53.132;6.408;2022-12-07T09:44:47;9.52;;;2.20;;
59207;SDS011;44977;53.132;6.408;2022-12-07T09:49:48;9.55;;;2.20;;
59207;SDS011;44977;53.132;6.408;2022-12-07T09:54:49;8.30;;;2.20;;
59207;SDS011;44977;53.132;6.408;2022-12-07T09:59:50;11.70;;;2.63;;
59207;SDS011;44977;53.132;6.408;2022-12-07T10:04:51;11.25;;;3.13;;
59207;SDS011;44977;53.132;6.408;2022-12-07T10:09:52;12.45;;;3.08;;
59207;SDS011;44977;53.132;6.408;2022-12-07T10:14:57;14.00;;;3.60;;
59207;SDS011;44977;53.132;6.408;2022-12-07T10:25:18;9.75;;;3.03;;
59207;SDS011;44977;53.132;6.408;2022-12-07T10:30:20;8.93;;;2.92;;
59207;SDS011;44977;53.132;6.408;2022-12-07T10:35:25;12.20;;;2.65;;
59207;SDS011;44977;53.132;6.408;2022-12-07T10:40:29;10.30;;;2.80;;
59207;SDS011;44977;53.132;6.408;2022-12-07T10:45:34;10.82;;;2.50;;
59207;SDS011;44977;53.132;6.408;2022-12-07T11:01:40;11.63;;;1.90;;
59207;SDS011;44977;53.132;6.408;2022-12-07T11:12:28;6.43;;;1.60;;
59207;SDS011;44977;53.132;6.408;2022-12-07T11:17:55;6.18;;;1.58;;
59207;SDS011;44977;53.132;6.408;2022-12-07T11:28:35;7.97;;;1.67;;
59207;SDS011;44977;53.132;6.408;2022-12-07T11:38:50;7.00;;;1.48;;
59207;SDS011;44977;53.132;6.408;2022-12-07T11:44:02;5.80;;;1.20;;
59207;SDS011;44977;53.132;6.408;2022-12-07T11:49:11;9.23;;;1.40;;
59207;SDS011;44977;53.132;6.408;2022-12-07T11:54:34;6.45;;;1.40;;
59207;SDS011;44977;53.132;6.408;2022-12-07T11:59:42;7.35;;;1.17;;
59207;SDS011;44977;53.132;6.408;2022-12-07T12:04:54;9.07;;;1.40;;
59207;SDS011;44977;53.132;6.408;2022-12-07T12:10:02;9.23;;;1.73;;
59207;SDS011;44977;53.132;6.408;2022-12-07T12:20:55;10.43;;;1.48;;
59207;SDS011;44977;53.132;6.408;2022-12-07T12:26:07;6.82;;;1.30;;
59207;SDS011;44977;53.132;6.408;2022-12-07T12:36:26;8.57;;;1.42;;
59207;SDS011;44977;53.132;6.408;2022-12-07T12:51:51;3.25;;;0.90;;
59207;SDS011;44977;53.132;6.408;2022-12-07T12:57:33;7.00;;;1.27;;
59207;SDS011;44977;53.132;6.408;2022-12-07T13:02:35;5.60;;;1.15;;
59207;SDS011;44977;53.132;6.408;2022-12-07T13:13:00;6.22;;;0.98;;
59207;SDS011;44977;53.132;6.408;2022-12-07T13:23:29;6.50;;;1.42;;
59207;SDS011;44977;53.132;6.408;2022-12-07T13:28:38;8.00;;;1.80;;
59207;SDS011;44977;53.132;6.408;2022-12-07T13:33:44;7.55;;;1.25;;
59207;SDS011;44977;53.132;6.408;2022-12-07T13:38:50;6.50;;;1.35;;
59207;SDS011;44977;53.132;6.408;2022-12-07T13:43:59;5.07;;;1.33;;
59207;SDS011;44977;53.132;6.408;2022-12-07T13:49:17;7.40;;;1.27;;
59207;SDS011;44977;53.132;6.408;2022-12-07T13:54:23;6.82;;;1.85;;
59207;SDS011;44977;53.132;6.408;2022-12-07T13:59:24;7.47;;;1.50;;
59207;SDS011;44977;53.132;6.408;2022-12-07T14:04:31;7.80;;;1.70;;
59207;SDS011;44977;53.132;6.408;2022-12-07T14:09:33;8.23;;;2.10;;
59207;SDS011;44977;53.132;6.408;2022-12-07T14:14:34;8.48;;;2.47;;
59207;SDS011;44977;53.132;6.408;2022-12-07T14:19:42;7.65;;;2.00;;
59207;SDS011;44977;53.132;6.408;2022-12-07T14:30:16;8.35;;;1.80;;
59207;SDS011;44977;53.132;6.408;2022-12-07T14:35:18;6.82;;;1.90;;
59207;SDS011;44977;53.132;6.408;2022-12-07T14:40:20;8.10;;;1.63;;
59207;SDS011;44977;53.132;6.408;2022-12-07T14:45:22;5.60;;;1.20;;
59207;SDS011;44977;53.132;6.408;2022-12-07T14:50:23;4.47;;;1.05;;
59207;SDS011;44977;53.132;6.408;2022-12-07T14:55:25;5.25;;;1.13;;
59207;SDS011;44977;53.132;6.408;2022-12-07T15:00:28;4.93;;;1.10;;
59207;SDS011;44977;53.132;6.408;2022-12-07T15:05:29;5.20;;;1.20;;
59207;SDS011;44977;53.132;6.408;2022-12-07T15:10:30;5.70;;;1.15;;
59207;SDS011;44977;53.132;6.408;2022-12-07T15:15:33;4.13;;;1.30;;
59207;SDS011;44977;53.132;6.408;2022-12-07T15:20:34;7.05;;;1.58;;
59207;SDS011;44977;53.132;6.408;2022-12-07T15:25:35;8.13;;;1.95;;
59207;SDS011;44977;53.132;6.408;2022-12-07T15:30:38;6.85;;;1.60;;
59207;SDS011;44977;53.132;6.408;2022-12-07T15:35:41;5.97;;;1.52;;
59207;SDS011;44977;53.132;6.408;2022-12-07T15:40:46;5.10;;;1.67;;
59207;SDS011;44977;53.132;6.408;2022-12-07T15:45:49;7.35;;;2.22;;
59207;SDS011;44977;53.132;6.408;2022-12-07T15:50:50;7.22;;;1.90;;
59207;SDS011;44977;53.132;6.408;2022-12-07T15:55:50;7.40;;;2.03;;
59207;SDS011;44977;53.132;6.408;2022-12-07T16:00:51;5.65;;;1.90;;
59207;SDS011;44977;53.132;6.408;2022-12-07T16:05:52;7.90;;;2.45;;
59207;SDS011;44977;53.132;6.408;2022-12-07T16:10:53;7.53;;;2.50;;
59207;SDS011;44977;53.132;6.408;2022-12-07T16:15:53;8.77;;;3.35;;
59207;SDS011;44977;53.132;6.408;2022-12-07T16:20:54;7.90;;;2.50;;
59207;SDS011;44977;53.132;6.408;2022-12-07T16:26:00;7.65;;;2.40;;
59207;SDS011;44977;53.132;6.408;2022-12-07T16:31:12;7.53;;;2.80;;
59207;SDS011;44977;53.132;6.408;2022-12-07T16:36:15;8.57;;;2.40;;
59207;SDS011;44977;53.132;6.408;2022-12-07T16:41:16;7.72;;;2.35;;
59207;SDS011;44977;53.132;6.408;2022-12-07T16:46:17;10.00;;;6.50;;
59207;SDS011;44977;53.132;6.408;2022-12-07T16:51:18;8.07;;;3.40;;
59207;SDS011;44977;53.132;6.408;2022-12-07T16:56:19;6.38;;;2.25;;
59207;SDS011;44977;53.132;6.408;2022-12-07T17:01:20;6.80;;;1.40;;
59207;SDS011;44977;53.132;6.408;2022-12-07T17:06:23;6.20;;;1.55;;
59207;SDS011;44977;53.132;6.408;2022-12-07T17:11:26;6.07;;;1.90;;
59207;SDS011;44977;53.132;6.408;2022-12-07T17:16:28;9.23;;;5.00;;
59207;SDS011;44977;53.132;6.408;2022-12-07T17:21:30;9.90;;;5.30;;
59207;SDS011;44977;53.132;6.408;2022-12-07T17:26:30;12.27;;;6.47;;
59207;SDS011;44977;53.132;6.408;2022-12-07T17:31:32;7.32;;;3.40;;
59207;SDS011;44977;53.132;6.408;2022-12-07T17:36:33;7.10;;;3.03;;
59207;SDS011;44977;53.132;6.408;2022-12-07T17:41:34;8.18;;;3.72;;
59207;SDS011;44977;53.132;6.408;2022-12-07T17:46:55;7.13;;;3.33;;
59207;SDS011;44977;53.132;6.408;2022-12-07T17:52:01;8.13;;;2.95;;
59207;SDS011;44977;53.132;6.408;2022-12-07T17:57:20;6.35;;;2.60;;
59207;SDS011;44977;53.132;6.408;2022-12-07T18:02:21;7.05;;;2.75;;
59207;SDS011;44977;53.132;6.408;2022-12-07T18:07:22;8.30;;;3.35;;
59207;SDS011;44977;53.132;6.408;2022-12-07T18:12:22;8.07;;;3.33;;
59207;SDS011;44977;53.132;6.408;2022-12-07T18:17:23;7.63;;;3.30;;
59207;SDS011;44977;53.132;6.408;2022-12-07T18:22:24;4.50;;;2.00;;
59207;SDS011;44977;53.132;6.408;2022-12-07T18:27:24;9.88;;;3.08;;
59207;SDS011;44977;53.132;6.408;2022-12-07T18:32:25;7.35;;;2.78;;
59207;SDS011;44977;53.132;6.408;2022-12-07T18:37:28;8.55;;;3.03;;
59207;SDS011;44977;53.132;6.408;2022-12-07T18:42:28;7.03;;;3.40;;
59207;SDS011;44977;53.132;6.408;2022-12-07T18:47:29;8.55;;;3.83;;
59207;SDS011;44977;53.132;6.408;2022-12-07T18:52:30;8.10;;;3.28;;
59207;SDS011;44977;53.132;6.408;2022-12-07T18:57:31;7.70;;;3.45;;
59207;SDS011;44977;53.132;6.408;2022-12-07T19:02:32;10.57;;;6.25;;
59207;SDS011;44977;53.132;6.408;2022-12-07T19:07:34;7.95;;;4.10;;
59207;SDS011;44977;53.132;6.408;2022-12-07T19:12:35;6.22;;;2.97;;
59207;SDS011;44977;53.132;6.408;2022-12-07T19:17:36;8.75;;;4.03;;
59207;SDS011;44977;53.132;6.408;2022-12-07T19:22:36;9.63;;;4.20;;
59207;SDS011;44977;53.132;6.408;2022-12-07T19:27:37;9.55;;;4.60;;
59207;SDS011;44977;53.132;6.408;2022-12-07T19:32:38;9.13;;;5.70;;
59207;SDS011;44977;53.132;6.408;2022-12-07T19:37:38;10.00;;;6.50;;
59207;SDS011;44977;53.132;6.408;2022-12-07T19:42:39;8.65;;;5.10;;
59207;SDS011;44977;53.132;6.408;2022-12-07T19:47:40;13.10;;;6.97;;
59207;SDS011;44977;53.132;6.408;2022-12-07T19:52:40;11.60;;;7.95;;
59207;SDS011;44977;53.132;6.408;2022-12-07T19:57:41;12.60;;;10.20;;
59207;SDS011;44977;53.132;6.408;2022-12-07T20:02:42;11.02;;;8.20;;
59207;SDS011;44977;53.132;6.408;2022-12-07T20:07:42;10.50;;;8.02;;
59207;SDS011;44977;53.132;6.408;2022-12-07T20:12:43;10.55;;;6.50;;
59207;SDS011;44977;53.132;6.408;2022-12-07T20:18:02;10.23;;;6.63;;
59207;SDS011;44977;53.132;6.408;2022-12-07T20:23:03;9.48;;;5.55;;
59207;SDS011;44977;53.132;6.408;2022-12-07T20:28:04;11.57;;;6.72;;
59207;SDS011;44977;53.132;6.408;2022-12-07T20:33:04;10.93;;;7.57;;
59207;SDS011;44977;53.132;6.408;2022-12-07T20:38:05;15.05;;;9.43;;
59207;SDS011;44977;53.132;6.408;2022-12-07T20:43:07;11.90;;;7.30;;
59207;SDS011;44977;53.132;6.408;2022-12-07T20:48:07;12.85;;;7.32;;
59207;SDS011;44977;53.132;6.408;2022-12-07T20:53:08;12.40;;;7.70;;
59207;SDS011;44977;53.132;6.408;2022-12-07T20:58:09;11.02;;;7.30;;
59207;SDS011;44977;53.132;6.408;2022-12-07T21:03:10;14.38;;;7.32;;
59207;SDS011;44977;53.132;6.408;2022-12-07T21:08:10;9.45;;;5.35;;
59207;SDS011;44977;53.132;6.408;2022-12-07T21:13:11;10.82;;;5.65;;
59207;SDS011;44977;53.132;6.408;2022-12-07T21:18:12;12.57;;;7.30;;
59207;SDS011;44977;53.132;6.408;2022-12-07T21:23:12;12.55;;;6.07;;
59207;SDS011;44977;53.132;6.408;2022-12-07T21:28:13;9.60;;;5.43;;
59207;SDS011;44977;53.132;6.408;2022-12-07T21:33:14;10.32;;;4.60;;
59207;SDS011;44977;53.132;6.408;2022-12-07T21:38:14;11.10;;;4.68;;
59207;SDS011;44977;53.132;6.408;2022-12-07T21:43:15;9.40;;;3.90;;
59207;SDS011;44977;53.132;6.408;2022-12-07T21:48:16;8.65;;;4.07;;
59207;SDS011;44977;53.132;6.408;2022-12-07T21:53:17;8.93;;;2.95;;
59207;SDS011;44977;53.132;6.408;2022-12-07T21:58:17;8.40;;;2.47;;
59207;SDS011;44977;53.132;6.408;2022-12-07T22:03:18;8.75;;;2.45;;
59207;SDS011;44977;53.132;6.408;2022-12-07T22:08:19;7.90;;;2.20;;
59207;SDS011;44977;53.132;6.408;2022-12-07T22:13:19;7.75;;;2.13;;
59207;SDS011;44977;53.132;6.408;2022-12-07T22:18:20;6.63;;;2.05;;
59207;SDS011;44977;53.132;6.408;2022-12-07T22:23:21;8.45;;;2.03;;
59207;SDS011;44977;53.132;6.408;2022-12-07T22:28:22;7.63;;;2.30;;
59207;SDS011;44977;53.132;6.408;2022-12-07T22:33:22;7.38;;;2.00;;
59207;SDS011;44977;53.132;6.408;2022-12-07T22:38:23;8.32;;;2.30;;
59207;SDS011;44977;53.132;6.408;2022-12-07T22:43:24;8.18;;;2.33;;
59207;SDS011;44977;53.132;6.408;2022-12-07T22:48:25;7.82;;;2.13;;
59207;SDS011;44977;53.132;6.408;2022-12-07T22:53:27;6.10;;;1.98;;
59207;SDS011;44977;53.132;6.408;2022-12-07T22:58:28;7.68;;;2.10;;
59207;SDS011;44977;53.132;6.408;2022-12-07T23:03:28;8.77;;;2.03;;
59207;SDS011;44977;53.132;6.408;2022-12-07T23:08:29;6.18;;;1.92;;
59207;SDS011;44977;53.132;6.408;2022-12-07T23:13:30;6.55;;;1.60;;
59207;SDS011;44977;53.132;6.408;2022-12-07T23:18:40;4.93;;;1.50;;
59207;SDS011;44977;53.132;6.408;2022-12-07T23:23:41;6.55;;;1.85;;
59207;SDS011;44977;53.132;6.408;2022-12-07T23:28:42;7.47;;;1.48;;
59207;SDS011;44977;53.132;6.408;2022-12-07T23:33:43;6.22;;;1.45;;
59207;SDS011;44977;53.132;6.408;2022-12-07T23:38:44;6.93;;;1.73;;
59207;SDS011;44977;53.132;6.408;2022-12-07T23:43:46;7.22;;;1.60;;
59207;SDS011;44977;53.132;6.408;2022-12-07T23:48:47;6.50;;;1.50;;
59207;SDS011;44977;53.132;6.408;2022-12-07T23:53:50;8.00;;;1.60;;
59207;SDS011;44977;53.132;6.408;2022-12-07T23:58:52;6.03;;;1.20;;
